PILOTS ONLINE: 302    ATC ONLINE: 56

MDPC

Punta Cana International Airport

Location

IATA PUJ
City Punta Cana
Country  Dominican Republic
Latitude 18° 34' 2" N
Longitude 68° 21' 48" W
Elevation 47 ft
Type Large Airport

Map

Weather

METAR
2014/10/22 01:00
MDPC 220100Z VRB03KT 9999 FEW022 27/23 Q1014 NOSIG
TAF
2014/10/21 18:27
TAF COR MDPC 211600Z 2118/2218 00000KT 9999 FEW020CB SCT022 SCT300 PROB30 2118/2200 8000 -TSSH FEW016CB BKN018 SCT070 
      BECMG 2113/2115 12008KT

Runways

09/27 10171 ft / 157 ft

Outbound flights

Callsign Flying to Pilot ATD/STD ETA Aircraft
JBU32  TJSJ - San Juan
Puerto Rico
Nicholas Joseph
1224435
01:13 01:13 E190

Inbound flights

Callsign Flying from Pilot ATD ETA Aircraft